sensor_id;sensor_type;location;lat;lon;timestamp;temperature;humidity
7360;DHT22;3720;48.274;7.796;2024-02-26T00:01:34;9.00;99.90
7360;DHT22;3720;48.274;7.796;2024-02-26T00:04:06;9.00;99.90
7360;DHT22;3720;48.274;7.796;2024-02-26T00:06:38;9.00;99.90
7360;DHT22;3720;48.274;7.796;2024-02-26T00:09:11;9.00;99.90
7360;DHT22;3720;48.274;7.796;2024-02-26T00:11:43;9.10;99.90
7360;DHT22;3720;48.274;7.796;2024-02-26T00:14:16;9.20;99.90
7360;DHT22;3720;48.274;7.796;2024-02-26T00:16:48;9.30;99.90
7360;DHT22;3720;48.274;7.796;2024-02-26T00:19:20;9.30;99.90
7360;DHT22;3720;48.274;7.796;2024-02-26T00:21:51;9.30;99.90
7360;DHT22;3720;48.274;7.796;2024-02-26T00:24:25;9.20;99.90
7360;DHT22;3720;48.274;7.796;2024-02-26T00:26:57;9.00;99.90
7360;DHT22;3720;48.274;7.796;2024-02-26T00:29:30;9.00;99.90
7360;DHT22;3720;48.274;7.796;2024-02-26T00:32:03;9.00;99.90
7360;DHT22;3720;48.274;7.796;2024-02-26T00:34:35;9.10;99.90
7360;DHT22;3720;48.274;7.796;2024-02-26T00:37:06;9.00;99.90
7360;DHT22;3720;48.274;7.796;2024-02-26T00:39:38;8.80;99.90
7360;DHT22;3720;48.274;7.796;2024-02-26T00:42:10;8.70;99.90
7360;DHT22;3720;48.274;7.796;2024-02-26T00:44:43;8.60;99.90
7360;DHT22;3720;48.274;7.796;2024-02-26T00:47:15;8.50;99.90
7360;DHT22;3720;48.274;7.796;2024-02-26T00:49:47;8.40;99.90
7360;DHT22;3720;48.274;7.796;2024-02-26T00:52:19;8.40;99.90
7360;DHT22;3720;48.274;7.796;2024-02-26T00:54:50;8.50;99.90
7360;DHT22;3720;48.274;7.796;2024-02-26T00:57:22;8.50;99.90
7360;DHT22;3720;48.274;7.796;2024-02-26T00:59:55;8.30;99.90
7360;DHT22;3720;48.274;7.796;2024-02-26T01:02:27;8.30;99.90
7360;DHT22;3720;48.274;7.796;2024-02-26T01:04:59;8.30;99.90
7360;DHT22;3720;48.274;7.796;2024-02-26T01:07:31;8.20;99.90
7360;DHT22;3720;48.274;7.796;2024-02-26T01:10:06;8.20;99.90
7360;DHT22;3720;48.274;7.796;2024-02-26T01:12:38;8.20;99.90
7360;DHT22;3720;48.274;7.796;2024-02-26T01:15:12;8.20;99.90
7360;DHT22;3720;48.274;7.796;2024-02-26T01:17:43;8.20;99.90
7360;DHT22;3720;48.274;7.796;2024-02-26T01:20:15;8.20;99.90
7360;DHT22;3720;48.274;7.796;2024-02-26T01:22:47;8.10;99.90
7360;DHT22;3720;48.274;7.796;2024-02-26T01:25:19;8.10;99.90
7360;DHT22;3720;48.274;7.796;2024-02-26T01:27:51;8.00;99.90
7360;DHT22;3720;48.274;7.796;2024-02-26T01:30:24;8.00;99.90
7360;DHT22;3720;48.274;7.796;2024-02-26T01:32:56;8.00;99.90
7360;DHT22;3720;48.274;7.796;2024-02-26T01:35:27;8.00;99.90
7360;DHT22;3720;48.274;7.796;2024-02-26T01:38:00;8.10;99.90
7360;DHT22;3720;48.274;7.796;2024-02-26T01:40:31;8.00;99.90
7360;DHT22;3720;48.274;7.796;2024-02-26T01:43:03;8.10;99.90
7360;DHT22;3720;48.274;7.796;2024-02-26T01:45:37;8.10;99.90
7360;DHT22;3720;48.274;7.796;2024-02-26T01:48:08;8.20;99.90
7360;DHT22;3720;48.274;7.796;2024-02-26T01:50:41;8.20;99.90
7360;DHT22;3720;48.274;7.796;2024-02-26T01:53:13;8.20;99.90
7360;DHT22;3720;48.274;7.796;2024-02-26T01:55:45;8.10;99.90
7360;DHT22;3720;48.274;7.796;2024-02-26T01:58:17;8.10;99.90
7360;DHT22;3720;48.274;7.796;2024-02-26T02:00:51;8.10;99.90
7360;DHT22;3720;48.274;7.796;2024-02-26T02:03:23;8.20;99.90
7360;DHT22;3720;48.274;7.796;2024-02-26T02:05:55;8.20;99.90
7360;DHT22;3720;48.274;7.796;2024-02-26T02:08:27;8.20;99.90
7360;DHT22;3720;48.274;7.796;2024-02-26T02:10:59;8.20;99.90
7360;DHT22;3720;48.274;7.796;2024-02-26T02:13:31;8.10;99.90
7360;DHT22;3720;48.274;7.796;2024-02-26T02:16:05;8.10;99.90
7360;DHT22;3720;48.274;7.796;2024-02-26T02:18:37;8.10;99.90
7360;DHT22;3720;48.274;7.796;2024-02-26T02:21:10;8.20;99.90
7360;DHT22;3720;48.274;7.796;2024-02-26T02:23:42;8.20;99.90
7360;DHT22;3720;48.274;7.796;2024-02-26T02:26:17;8.20;99.90
7360;DHT22;3720;48.274;7.796;2024-02-26T02:28:49;8.20;99.90
7360;DHT22;3720;48.274;7.796;2024-02-26T02:31:21;8.20;99.90
7360;DHT22;3720;48.274;7.796;2024-02-26T02:33:53;8.20;99.90
7360;DHT22;3720;48.274;7.796;2024-02-26T02:36:26;8.30;99.90
7360;DHT22;3720;48.274;7.796;2024-02-26T02:38:58;8.30;99.90
7360;DHT22;3720;48.274;7.796;2024-02-26T02:41:30;8.30;99.90
7360;DHT22;3720;48.274;7.796;2024-02-26T02:44:01;8.30;99.90
7360;DHT22;3720;48.274;7.796;2024-02-26T02:46:33;8.20;99.90
7360;DHT22;3720;48.274;7.796;2024-02-26T02:49:08;8.20;99.90
7360;DHT22;3720;48.274;7.796;2024-02-26T02:51:41;8.20;99.90
7360;DHT22;3720;48.274;7.796;2024-02-26T02:54:13;8.30;99.90
7360;DHT22;3720;48.274;7.796;2024-02-26T02:56:45;8.30;99.90
7360;DHT22;3720;48.274;7.796;2024-02-26T02:59:17;8.30;99.90
7360;DHT22;3720;48.274;7.796;2024-02-26T03:01:48;8.30;99.90
7360;DHT22;3720;48.274;7.796;2024-02-26T03:04:20;8.30;99.90
7360;DHT22;3720;48.274;7.796;2024-02-26T03:06:54;8.30;99.90
7360;DHT22;3720;48.274;7.796;2024-02-26T03:09:25;8.30;99.90
7360;DHT22;3720;48.274;7.796;2024-02-26T03:11:57;8.30;99.90
7360;DHT22;3720;48.274;7.796;2024-02-26T03:14:29;8.20;99.90
7360;DHT22;3720;48.274;7.796;2024-02-26T03:17:01;8.20;99.90
7360;DHT22;3720;48.274;7.796;2024-02-26T03:19:33;8.20;99.90
7360;DHT22;3720;48.274;7.796;2024-02-26T03:22:06;8.20;99.90
7360;DHT22;3720;48.274;7.796;2024-02-26T03:24:38;8.10;99.90
7360;DHT22;3720;48.274;7.796;2024-02-26T03:27:10;8.10;99.90
7360;DHT22;3720;48.274;7.796;2024-02-26T03:29:42;8.20;99.90
7360;DHT22;3720;48.274;7.796;2024-02-26T03:32:13;8.10;99.90
7360;DHT22;3720;48.274;7.796;2024-02-26T03:34:45;8.10;99.90
7360;DHT22;3720;48.274;7.796;2024-02-26T03:37:18;8.10;99.90
7360;DHT22;3720;48.274;7.796;2024-02-26T03:39:50;8.00;99.90
7360;DHT22;3720;48.274;7.796;2024-02-26T03:42:22;8.00;99.90
7360;DHT22;3720;48.274;7.796;2024-02-26T03:44:54;8.00;99.90
7360;DHT22;3720;48.274;7.796;2024-02-26T03:47:26;7.90;99.90
7360;DHT22;3720;48.274;7.796;2024-02-26T03:49:57;7.90;99.90
7360;DHT22;3720;48.274;7.796;2024-02-26T03:52:32;7.90;99.90
7360;DHT22;3720;48.274;7.796;2024-02-26T03:55:04;7.90;99.90
7360;DHT22;3720;48.274;7.796;2024-02-26T03:57:36;7.80;99.90
7360;DHT22;3720;48.274;7.796;2024-02-26T04:00:09;7.90;99.90
7360;DHT22;3720;48.274;7.796;2024-02-26T04:02:41;7.90;99.90
7360;DHT22;3720;48.274;7.796;2024-02-26T04:05:13;7.80;99.90
7360;DHT22;3720;48.274;7.796;2024-02-26T04:07:47;7.80;99.90
7360;DHT22;3720;48.274;7.796;2024-02-26T04:10:19;7.80;99.90
7360;DHT22;3720;48.274;7.796;2024-02-26T04:12:51;7.90;99.90
7360;DHT22;3720;48.274;7.796;2024-02-26T04:15:22;7.80;99.90
7360;DHT22;3720;48.274;7.796;2024-02-26T04:17:54;7.80;99.90
7360;DHT22;3720;48.274;7.796;2024-02-26T04:20:26;7.70;99.90
7360;DHT22;3720;48.274;7.796;2024-02-26T04:22:59;7.60;99.90
7360;DHT22;3720;48.274;7.796;2024-02-26T04:25:31;7.50;99.90
7360;DHT22;3720;48.274;7.796;2024-02-26T04:28:03;7.50;99.90
7360;DHT22;3720;48.274;7.796;2024-02-26T04:30:36;7.50;99.90
7360;DHT22;3720;48.274;7.796;2024-02-26T04:33:08;7.50;99.90
7360;DHT22;3720;48.274;7.796;2024-02-26T04:35:40;7.40;99.90
7360;DHT22;3720;48.274;7.796;2024-02-26T04:38:13;7.50;99.90
7360;DHT22;3720;48.274;7.796;2024-02-26T04:40:45;7.40;99.90
7360;DHT22;3720;48.274;7.796;2024-02-26T04:43:17;7.50;99.90
7360;DHT22;3720;48.274;7.796;2024-02-26T04:45:49;7.50;99.90
7360;DHT22;3720;48.274;7.796;2024-02-26T04:48:23;7.50;99.90
7360;DHT22;3720;48.274;7.796;2024-02-26T04:50:54;7.50;99.90
7360;DHT22;3720;48.274;7.796;2024-02-26T04:53:28;7.60;99.90
7360;DHT22;3720;48.274;7.796;2024-02-26T04:55:59;7.60;99.90
7360;DHT22;3720;48.274;7.796;2024-02-26T04:58:31;7.60;99.90
7360;DHT22;3720;48.274;7.796;2024-02-26T05:01:04;7.70;99.90
7360;DHT22;3720;48.274;7.796;2024-02-26T05:03:35;7.70;99.90
7360;DHT22;3720;48.274;7.796;2024-02-26T05:06:08;7.70;99.90
7360;DHT22;3720;48.274;7.796;2024-02-26T05:08:41;7.70;99.90
7360;DHT22;3720;48.274;7.796;2024-02-26T05:11:14;7.80;99.90
7360;DHT22;3720;48.274;7.796;2024-02-26T05:13:47;7.80;99.90
7360;DHT22;3720;48.274;7.796;2024-02-26T05:16:19;7.80;99.90
7360;DHT22;3720;48.274;7.796;2024-02-26T05:18:55;7.70;99.90
7360;DHT22;3720;48.274;7.796;2024-02-26T05:21:26;7.70;99.90
7360;DHT22;3720;48.274;7.796;2024-02-26T05:24:00;7.70;99.90
7360;DHT22;3720;48.274;7.796;2024-02-26T05:26:31;7.70;99.90
7360;DHT22;3720;48.274;7.796;2024-02-26T05:29:03;7.60;99.90
7360;DHT22;3720;48.274;7.796;2024-02-26T05:31:36;7.60;99.90
7360;DHT22;3720;48.274;7.796;2024-02-26T05:34:07;7.60;99.90
7360;DHT22;3720;48.274;7.796;2024-02-26T05:36:39;7.60;99.90
7360;DHT22;3720;48.274;7.796;2024-02-26T05:39:13;7.60;99.90
7360;DHT22;3720;48.274;7.796;2024-02-26T05:41:45;7.60;99.90
7360;DHT22;3720;48.274;7.796;2024-02-26T05:44:17;7.70;99.90
7360;DHT22;3720;48.274;7.796;2024-02-26T05:46:48;7.70;99.90
7360;DHT22;3720;48.274;7.796;2024-02-26T05:49:21;7.80;99.90
7360;DHT22;3720;48.274;7.796;2024-02-26T05:51:53;7.80;99.90
7360;DHT22;3720;48.274;7.796;2024-02-26T05:54:26;7.80;99.90
7360;DHT22;3720;48.274;7.796;2024-02-26T05:56:58;7.80;99.90
7360;DHT22;3720;48.274;7.796;2024-02-26T05:59:30;7.80;99.90
7360;DHT22;3720;48.274;7.796;2024-02-26T06:02:02;7.90;99.90
7360;DHT22;3720;48.274;7.796;2024-02-26T06:04:33;7.80;99.90
7360;DHT22;3720;48.274;7.796;2024-02-26T06:07:15;7.80;99.90
7360;DHT22;3720;48.274;7.796;2024-02-26T06:09:48;7.80;99.90
7360;DHT22;3720;48.274;7.796;2024-02-26T06:12:20;7.90;99.90
7360;DHT22;3720;48.274;7.796;2024-02-26T06:14:52;7.80;99.90
7360;DHT22;3720;48.274;7.796;2024-02-26T06:17:24;7.90;99.90
7360;DHT22;3720;48.274;7.796;2024-02-26T06:19:56;7.80;99.90
7360;DHT22;3720;48.274;7.796;2024-02-26T06:22:30;7.80;99.90
7360;DHT22;3720;48.274;7.796;2024-02-26T06:25:03;7.80;99.90
7360;DHT22;3720;48.274;7.796;2024-02-26T06:27:35;7.80;99.90
7360;DHT22;3720;48.274;7.796;2024-02-26T06:30:08;7.80;99.90
7360;DHT22;3720;48.274;7.796;2024-02-26T06:32:41;7.70;99.90
7360;DHT22;3720;48.274;7.796;2024-02-26T06:35:14;7.70;99.90
7360;DHT22;3720;48.274;7.796;2024-02-26T06:37:45;7.70;99.90
7360;DHT22;3720;48.274;7.796;2024-02-26T06:40:19;7.70;99.90
7360;DHT22;3720;48.274;7.796;2024-02-26T06:42:52;7.70;99.90
7360;DHT22;3720;48.274;7.796;2024-02-26T06:45:24;7.70;99.90
7360;DHT22;3720;48.274;7.796;2024-02-26T06:47:56;7.70;99.90
7360;DHT22;3720;48.274;7.796;2024-02-26T06:50:28;7.70;99.90
7360;DHT22;3720;48.274;7.796;2024-02-26T06:53:00;7.70;99.90
7360;DHT22;3720;48.274;7.796;2024-02-26T06:55:33;7.70;99.90
7360;DHT22;3720;48.274;7.796;2024-02-26T06:58:05;7.70;99.90
7360;DHT22;3720;48.274;7.796;2024-02-26T07:00:36;7.70;99.90
7360;DHT22;3720;48.274;7.796;2024-02-26T07:03:08;7.80;99.90
7360;DHT22;3720;48.274;7.796;2024-02-26T07:05:41;7.80;99.90
7360;DHT22;3720;48.274;7.796;2024-02-26T07:08:12;7.80;99.90
7360;DHT22;3720;48.274;7.796;2024-02-26T07:10:45;7.90;99.90
7360;DHT22;3720;48.274;7.796;2024-02-26T07:13:17;7.90;99.90
7360;DHT22;3720;48.274;7.796;2024-02-26T07:15:49;7.90;99.90
7360;DHT22;3720;48.274;7.796;2024-02-26T07:18:21;7.90;99.90
7360;DHT22;3720;48.274;7.796;2024-02-26T07:20:53;7.90;99.90
7360;DHT22;3720;48.274;7.796;2024-02-26T07:23:24;7.90;99.90
7360;DHT22;3720;48.274;7.796;2024-02-26T07:25:59;7.90;99.90
7360;DHT22;3720;48.274;7.796;2024-02-26T07:28:30;7.90;99.90
7360;DHT22;3720;48.274;7.796;2024-02-26T07:31:02;8.00;99.90
7360;DHT22;3720;48.274;7.796;2024-02-26T07:33:34;8.00;99.90
7360;DHT22;3720;48.274;7.796;2024-02-26T07:36:06;8.10;99.90
7360;DHT22;3720;48.274;7.796;2024-02-26T07:38:38;8.20;99.90
7360;DHT22;3720;48.274;7.796;2024-02-26T07:41:12;8.20;99.90
7360;DHT22;3720;48.274;7.796;2024-02-26T07:43:44;8.30;99.90
7360;DHT22;3720;48.274;7.796;2024-02-26T07:46:16;8.30;99.90
7360;DHT22;3720;48.274;7.796;2024-02-26T07:48:48;8.40;99.90
7360;DHT22;3720;48.274;7.796;2024-02-26T07:51:20;8.50;99.90
7360;DHT22;3720;48.274;7.796;2024-02-26T07:53:53;8.60;99.90
7360;DHT22;3720;48.274;7.796;2024-02-26T07:56:26;8.60;99.90
7360;DHT22;3720;48.274;7.796;2024-02-26T07:58:58;8.70;99.90
7360;DHT22;3720;48.274;7.796;2024-02-26T08:01:29;8.80;99.90
7360;DHT22;3720;48.274;7.796;2024-02-26T08:04:01;8.90;99.90
7360;DHT22;3720;48.274;7.796;2024-02-26T08:06:33;9.00;99.90
7360;DHT22;3720;48.274;7.796;2024-02-26T08:09:05;9.10;99.90
7360;DHT22;3720;48.274;7.796;2024-02-26T08:11:38;9.20;99.90
7360;DHT22;3720;48.274;7.796;2024-02-26T08:14:10;9.30;99.90
7360;DHT22;3720;48.274;7.796;2024-02-26T08:16:42;9.30;99.90
7360;DHT22;3720;48.274;7.796;2024-02-26T08:19:14;9.40;99.90
7360;DHT22;3720;48.274;7.796;2024-02-26T08:21:46;9.40;99.90
7360;DHT22;3720;48.274;7.796;2024-02-26T08:24:18;9.30;99.90
7360;DHT22;3720;48.274;7.796;2024-02-26T08:26:51;9.30;99.90
7360;DHT22;3720;48.274;7.796;2024-02-26T08:29:23;9.30;99.90
7360;DHT22;3720;48.274;7.796;2024-02-26T08:31:55;9.40;99.90
7360;DHT22;3720;48.274;7.796;2024-02-26T08:34:26;9.50;99.90
7360;DHT22;3720;48.274;7.796;2024-02-26T08:36:58;9.50;99.90
7360;DHT22;3720;48.274;7.796;2024-02-26T08:39:30;9.60;99.90
7360;DHT22;3720;48.274;7.796;2024-02-26T08:42:03;9.70;99.90
7360;DHT22;3720;48.274;7.796;2024-02-26T08:44:35;9.70;99.90
7360;DHT22;3720;48.274;7.796;2024-02-26T08:47:07;9.90;99.90
7360;DHT22;3720;48.274;7.796;2024-02-26T08:49:42;9.90;99.90
7360;DHT22;3720;48.274;7.796;2024-02-26T08:52:14;10.00;99.90
7360;DHT22;3720;48.274;7.796;2024-02-26T08:54:46;10.10;99.90
7360;DHT22;3720;48.274;7.796;2024-02-26T08:57:19;10.20;99.90
7360;DHT22;3720;48.274;7.796;2024-02-26T08:59:51;10.30;99.90
7360;DHT22;3720;48.274;7.796;2024-02-26T09:02:23;10.40;99.90
7360;DHT22;3720;48.274;7.796;2024-02-26T09:04:54;10.60;99.90
7360;DHT22;3720;48.274;7.796;2024-02-26T09:07:27;10.60;99.90
7360;DHT22;3720;48.274;7.796;2024-02-26T09:09:59;10.60;99.90
7360;DHT22;3720;48.274;7.796;2024-02-26T09:12:32;10.60;99.90
7360;DHT22;3720;48.274;7.796;2024-02-26T09:15:06;10.60;99.90
7360;DHT22;3720;48.274;7.796;2024-02-26T09:17:38;10.60;99.90
7360;DHT22;3720;48.274;7.796;2024-02-26T09:20:10;10.70;99.90
7360;DHT22;3720;48.274;7.796;2024-02-26T09:22:44;10.80;99.90
7360;DHT22;3720;48.274;7.796;2024-02-26T09:25:16;10.90;99.90
7360;DHT22;3720;48.274;7.796;2024-02-26T09:27:49;11.00;99.90
7360;DHT22;3720;48.274;7.796;2024-02-26T09:30:21;11.10;99.90
7360;DHT22;3720;48.274;7.796;2024-02-26T09:32:53;11.10;99.90
7360;DHT22;3720;48.274;7.796;2024-02-26T09:35:25;11.20;99.90
7360;DHT22;3720;48.274;7.796;2024-02-26T09:37:57;11.30;99.90
7360;DHT22;3720;48.274;7.796;2024-02-26T09:40:29;11.30;99.90
7360;DHT22;3720;48.274;7.796;2024-02-26T09:43:05;11.40;99.90
7360;DHT22;3720;48.274;7.796;2024-02-26T09:45:38;11.40;99.90
7360;DHT22;3720;48.274;7.796;2024-02-26T09:48:10;11.40;99.90
7360;DHT22;3720;48.274;7.796;2024-02-26T09:50:43;11.40;99.90
7360;DHT22;3720;48.274;7.796;2024-02-26T09:53:17;11.50;99.90
7360;DHT22;3720;48.274;7.796;2024-02-26T09:55:49;11.60;99.90
7360;DHT22;3720;48.274;7.796;2024-02-26T09:58:24;11.80;99.90
7360;DHT22;3720;48.274;7.796;2024-02-26T10:00:57;11.80;99.90
7360;DHT22;3720;48.274;7.796;2024-02-26T10:03:36;11.90;99.90
7360;DHT22;3720;48.274;7.796;2024-02-26T10:06:10;12.00;99.90
7360;DHT22;3720;48.274;7.796;2024-02-26T10:08:43;12.00;99.90
7360;DHT22;3720;48.274;7.796;2024-02-26T10:11:16;12.10;99.90
7360;DHT22;3720;48.274;7.796;2024-02-26T10:13:49;12.10;99.90
7360;DHT22;3720;48.274;7.796;2024-02-26T10:16:21;12.10;99.90
7360;DHT22;3720;48.274;7.796;2024-02-26T10:18:54;12.20;99.90
7360;DHT22;3720;48.274;7.796;2024-02-26T10:21:26;12.30;99.90
7360;DHT22;3720;48.274;7.796;2024-02-26T10:23:57;12.30;99.90
7360;DHT22;3720;48.274;7.796;2024-02-26T10:26:28;12.30;99.90
7360;DHT22;3720;48.274;7.796;2024-02-26T10:29:02;12.30;99.90
7360;DHT22;3720;48.274;7.796;2024-02-26T10:31:34;12.30;99.90
7360;DHT22;3720;48.274;7.796;2024-02-26T10:34:06;12.30;99.90
7360;DHT22;3720;48.274;7.796;2024-02-26T10:36:37;12.30;99.90
7360;DHT22;3720;48.274;7.796;2024-02-26T10:39:12;12.20;99.90
7360;DHT22;3720;48.274;7.796;2024-02-26T10:41:44;12.30;99.90
7360;DHT22;3720;48.274;7.796;2024-02-26T10:44:18;12.30;99.90
7360;DHT22;3720;48.274;7.796;2024-02-26T10:46:50;12.30;99.90
7360;DHT22;3720;48.274;7.796;2024-02-26T10:49:22;12.30;99.90
7360;DHT22;3720;48.274;7.796;2024-02-26T10:51:56;12.40;99.90
7360;DHT22;3720;48.274;7.796;2024-02-26T10:54:29;12.50;99.90
7360;DHT22;3720;48.274;7.796;2024-02-26T10:57:01;12.60;99.90
7360;DHT22;3720;48.274;7.796;2024-02-26T10:59:36;12.70;99.90
7360;DHT22;3720;48.274;7.796;2024-02-26T11:02:10;12.80;99.90
7360;DHT22;3720;48.274;7.796;2024-02-26T11:04:42;13.00;99.90
7360;DHT22;3720;48.274;7.796;2024-02-26T11:07:16;13.20;99.90
7360;DHT22;3720;48.274;7.796;2024-02-26T11:09:49;13.30;99.90
7360;DHT22;3720;48.274;7.796;2024-02-26T11:12:23;13.50;99.90
7360;DHT22;3720;48.274;7.796;2024-02-26T11:14:58;13.80;99.90
7360;DHT22;3720;48.274;7.796;2024-02-26T11:17:32;14.20;99.90
7360;DHT22;3720;48.274;7.796;2024-02-26T11:20:08;14.60;99.90
7360;DHT22;3720;48.274;7.796;2024-02-26T11:22:41;14.90;99.90
7360;DHT22;3720;48.274;7.796;2024-02-26T11:25:13;15.10;99.90
7360;DHT22;3720;48.274;7.796;2024-02-26T11:27:51;15.20;99.90
7360;DHT22;3720;48.274;7.796;2024-02-26T11:30:30;15.20;99.90
7360;DHT22;3720;48.274;7.796;2024-02-26T11:33:02;15.20;99.90
7360;DHT22;3720;48.274;7.796;2024-02-26T11:35:36;15.20;99.90
7360;DHT22;3720;48.274;7.796;2024-02-26T11:38:08;15.10;99.90
7360;DHT22;3720;48.274;7.796;2024-02-26T11:40:48;15.20;99.90
7360;DHT22;3720;48.274;7.796;2024-02-26T11:43:23;15.20;99.90
7360;DHT22;3720;48.274;7.796;2024-02-26T11:45:57;15.20;99.90
7360;DHT22;3720;48.274;7.796;2024-02-26T11:48:30;15.10;99.90
7360;DHT22;3720;48.274;7.796;2024-02-26T11:51:05;15.20;99.90
7360;DHT22;3720;48.274;7.796;2024-02-26T11:53:46;15.20;99.90
7360;DHT22;3720;48.274;7.796;2024-02-26T11:56:23;15.20;99.90
7360;DHT22;3720;48.274;7.796;2024-02-26T11:58:59;15.30;99.90
7360;DHT22;3720;48.274;7.796;2024-02-26T12:01:43;15.30;99.90
7360;DHT22;3720;48.274;7.796;2024-02-26T12:04:18;15.30;99.90
7360;DHT22;3720;48.274;7.796;2024-02-26T12:06:52;15.30;99.90
7360;DHT22;3720;48.274;7.796;2024-02-26T12:09:34;15.30;99.90
7360;DHT22;3720;48.274;7.796;2024-02-26T12:12:07;15.20;99.90
7360;DHT22;3720;48.274;7.796;2024-02-26T12:14:41;15.20;99.90
7360;DHT22;3720;48.274;7.796;2024-02-26T12:17:24;15.20;99.90
7360;DHT22;3720;48.274;7.796;2024-02-26T12:20:08;15.10;99.90
7360;DHT22;3720;48.274;7.796;2024-02-26T12:22:40;15.10;99.90
7360;DHT22;3720;48.274;7.796;2024-02-26T12:25:13;15.00;99.90
7360;DHT22;3720;48.274;7.796;2024-02-26T12:27:45;15.00;99.90
7360;DHT22;3720;48.274;7.796;2024-02-26T12:30:17;14.90;99.90
7360;DHT22;3720;48.274;7.796;2024-02-26T12:32:52;15.00;99.90
7360;DHT22;3720;48.274;7.796;2024-02-26T12:35:28;14.90;99.90
7360;DHT22;3720;48.274;7.796;2024-02-26T12:38:02;14.90;99.90
7360;DHT22;3720;48.274;7.796;2024-02-26T12:40:35;14.90;99.90
7360;DHT22;3720;48.274;7.796;2024-02-26T12:43:07;14.80;99.90
7360;DHT22;3720;48.274;7.796;2024-02-26T12:45:43;14.80;99.90
7360;DHT22;3720;48.274;7.796;2024-02-26T12:48:18;14.90;99.90
7360;DHT22;3720;48.274;7.796;2024-02-26T12:50:51;14.90;99.90
7360;DHT22;3720;48.274;7.796;2024-02-26T12:53:22;14.90;99.90
7360;DHT22;3720;48.274;7.796;2024-02-26T12:55:54;14.90;99.90
7360;DHT22;3720;48.274;7.796;2024-02-26T12:58:26;14.80;99.90
7360;DHT22;3720;48.274;7.796;2024-02-26T13:00:59;14.80;99.90
7360;DHT22;3720;48.274;7.796;2024-02-26T13:03:33;14.80;99.90
7360;DHT22;3720;48.274;7.796;2024-02-26T13:06:06;14.80;99.90
7360;DHT22;3720;48.274;7.796;2024-02-26T13:08:38;14.80;99.90
7360;DHT22;3720;48.274;7.796;2024-02-26T13:11:11;14.80;99.90
7360;DHT22;3720;48.274;7.796;2024-02-26T13:13:47;14.80;99.90
7360;DHT22;3720;48.274;7.796;2024-02-26T13:16:18;14.80;99.90
7360;DHT22;3720;48.274;7.796;2024-02-26T13:18:52;14.80;99.90
7360;DHT22;3720;48.274;7.796;2024-02-26T13:21:23;14.90;99.90
7360;DHT22;3720;48.274;7.796;2024-02-26T13:23:56;14.90;99.90
7360;DHT22;3720;48.274;7.796;2024-02-26T13:26:28;14.90;99.90
7360;DHT22;3720;48.274;7.796;2024-02-26T13:29:01;15.00;99.90
7360;DHT22;3720;48.274;7.796;2024-02-26T13:31:39;15.00;99.90
7360;DHT22;3720;48.274;7.796;2024-02-26T13:34:23;15.10;99.90
7360;DHT22;3720;48.274;7.796;2024-02-26T13:36:55;15.20;99.90
7360;DHT22;3720;48.274;7.796;2024-02-26T13:39:28;15.20;99.90
7360;DHT22;3720;48.274;7.796;2024-02-26T13:42:00;15.20;99.90
7360;DHT22;3720;48.274;7.796;2024-02-26T13:44:33;15.20;99.90
7360;DHT22;3720;48.274;7.796;2024-02-26T13:47:09;15.20;99.90
7360;DHT22;3720;48.274;7.796;2024-02-26T13:49:43;15.20;99.90
7360;DHT22;3720;48.274;7.796;2024-02-26T13:52:14;15.20;99.90
7360;DHT22;3720;48.274;7.796;2024-02-26T13:54:46;15.20;99.90
7360;DHT22;3720;48.274;7.796;2024-02-26T13:57:19;15.10;99.90
7360;DHT22;3720;48.274;7.796;2024-02-26T13:59:50;15.10;99.90
7360;DHT22;3720;48.274;7.796;2024-02-26T14:02:22;15.00;99.90
7360;DHT22;3720;48.274;7.796;2024-02-26T14:04:55;14.90;99.90
7360;DHT22;3720;48.274;7.796;2024-02-26T14:07:27;14.90;99.90
7360;DHT22;3720;48.274;7.796;2024-02-26T14:09:59;14.80;99.90
7360;DHT22;3720;48.274;7.796;2024-02-26T14:12:31;14.80;99.90
7360;DHT22;3720;48.274;7.796;2024-02-26T14:15:03;14.90;99.90
7360;DHT22;3720;48.274;7.796;2024-02-26T14:17:35;14.90;99.90
7360;DHT22;3720;48.274;7.796;2024-02-26T14:20:10;14.90;99.90
7360;DHT22;3720;48.274;7.796;2024-02-26T14:22:42;14.90;99.90
7360;DHT22;3720;48.274;7.796;2024-02-26T14:25:13;14.90;99.90
7360;DHT22;3720;48.274;7.796;2024-02-26T14:27:46;14.90;99.90
7360;DHT22;3720;48.274;7.796;2024-02-26T14:30:17;14.80;99.90
7360;DHT22;3720;48.274;7.796;2024-02-26T14:32:49;14.90;99.90
7360;DHT22;3720;48.274;7.796;2024-02-26T14:35:23;14.90;99.90
7360;DHT22;3720;48.274;7.796;2024-02-26T14:37:55;14.90;99.90
7360;DHT22;3720;48.274;7.796;2024-02-26T14:40:31;14.90;99.90
7360;DHT22;3720;48.274;7.796;2024-02-26T14:43:03;14.80;99.90
7360;DHT22;3720;48.274;7.796;2024-02-26T14:45:36;14.80;99.90
7360;DHT22;3720;48.274;7.796;2024-02-26T14:48:08;14.90;99.90
7360;DHT22;3720;48.274;7.796;2024-02-26T14:50:42;14.90;99.90
7360;DHT22;3720;48.274;7.796;2024-02-26T14:53:14;14.90;99.90
7360;DHT22;3720;48.274;7.796;2024-02-26T14:55:46;15.00;99.90
7360;DHT22;3720;48.274;7.796;2024-02-26T14:58:17;15.10;99.90
7360;DHT22;3720;48.274;7.796;2024-02-26T15:00:50;15.00;99.90
7360;DHT22;3720;48.274;7.796;2024-02-26T15:03:22;15.00;99.90
7360;DHT22;3720;48.274;7.796;2024-02-26T15:05:55;15.10;99.90
7360;DHT22;3720;48.274;7.796;2024-02-26T15:08:27;15.10;99.90
7360;DHT22;3720;48.274;7.796;2024-02-26T15:11:00;15.00;99.90
7360;DHT22;3720;48.274;7.796;2024-02-26T15:13:34;15.00;99.90
7360;DHT22;3720;48.274;7.796;2024-02-26T15:16:06;15.00;99.90
7360;DHT22;3720;48.274;7.796;2024-02-26T15:18:38;15.00;99.90
7360;DHT22;3720;48.274;7.796;2024-02-26T15:21:11;14.90;99.90
7360;DHT22;3720;48.274;7.796;2024-02-26T15:23:44;14.90;99.90
7360;DHT22;3720;48.274;7.796;2024-02-26T15:26:17;14.90;99.90
7360;DHT22;3720;48.274;7.796;2024-02-26T15:28:49;14.90;99.90
7360;DHT22;3720;48.274;7.796;2024-02-26T15:31:21;14.90;99.90
7360;DHT22;3720;48.274;7.796;2024-02-26T15:33:53;14.90;99.90
7360;DHT22;3720;48.274;7.796;2024-02-26T15:36:26;14.90;99.90
7360;DHT22;3720;48.274;7.796;2024-02-26T15:38:58;14.80;99.90
7360;DHT22;3720;48.274;7.796;2024-02-26T15:41:30;14.80;99.90
7360;DHT22;3720;48.274;7.796;2024-02-26T15:44:01;14.70;99.90
7360;DHT22;3720;48.274;7.796;2024-02-26T15:46:37;14.80;99.90
7360;DHT22;3720;48.274;7.796;2024-02-26T15:49:09;14.80;99.90
7360;DHT22;3720;48.274;7.796;2024-02-26T15:51:43;14.90;99.90
7360;DHT22;3720;48.274;7.796;2024-02-26T15:54:15;15.10;99.90
7360;DHT22;3720;48.274;7.796;2024-02-26T15:56:47;15.30;99.90
7360;DHT22;3720;48.274;7.796;2024-02-26T15:59:19;15.30;99.90
7360;DHT22;3720;48.274;7.796;2024-02-26T16:01:51;15.40;99.90
7360;DHT22;3720;48.274;7.796;2024-02-26T16:04:23;15.50;99.90
7360;DHT22;3720;48.274;7.796;2024-02-26T16:06:59;15.60;99.90
7360;DHT22;3720;48.274;7.796;2024-02-26T16:09:32;15.80;99.90
7360;DHT22;3720;48.274;7.796;2024-02-26T16:12:10;15.80;99.90
7360;DHT22;3720;48.274;7.796;2024-02-26T16:14:47;15.80;99.90
7360;DHT22;3720;48.274;7.796;2024-02-26T16:17:24;15.70;99.90
7360;DHT22;3720;48.274;7.796;2024-02-26T16:19:57;15.60;99.90
7360;DHT22;3720;48.274;7.796;2024-02-26T16:22:31;15.40;99.90
7360;DHT22;3720;48.274;7.796;2024-02-26T16:25:03;15.30;99.90
7360;DHT22;3720;48.274;7.796;2024-02-26T16:27:36;15.20;99.90
7360;DHT22;3720;48.274;7.796;2024-02-26T16:30:09;15.00;99.90
7360;DHT22;3720;48.274;7.796;2024-02-26T16:32:42;14.90;99.90
7360;DHT22;3720;48.274;7.796;2024-02-26T16:35:14;14.80;99.90
7360;DHT22;3720;48.274;7.796;2024-02-26T16:37:47;14.80;99.90
7360;DHT22;3720;48.274;7.796;2024-02-26T16:40:19;14.70;99.90
7360;DHT22;3720;48.274;7.796;2024-02-26T16:42:51;14.70;99.90
7360;DHT22;3720;48.274;7.796;2024-02-26T16:45:23;14.60;99.90